createdAt,value
2023-03-06T00:01:48.944Z,10.95
2023-03-06T00:04:16.333Z,11.15
2023-03-06T00:06:43.521Z,10.88
2023-03-06T00:09:10.656Z,8.30
2023-03-06T00:11:38.204Z,7.43
2023-03-06T00:14:05.460Z,6.97
2023-03-06T00:16:32.621Z,7.00
2023-03-06T00:18:59.790Z,8.57
2023-03-06T00:21:27.117Z,9.93
2023-03-06T00:23:57.343Z,7.68
2023-03-06T00:26:24.475Z,7.63
2023-03-06T00:28:51.597Z,7.43
2023-03-06T00:31:18.741Z,10.15
2023-03-06T00:33:46.030Z,9.27
2023-03-06T00:36:13.415Z,10.43
2023-03-06T00:38:40.541Z,10.40
2023-03-06T00:41:08.624Z,9.73
2023-03-06T00:43:35.823Z,10.07
2023-03-06T00:46:03.723Z,10.57
2023-03-06T00:48:31.040Z,14.35
2023-03-06T00:50:58.190Z,13.45
2023-03-06T00:53:25.415Z,11.32
2023-03-06T00:55:52.813Z,11.85
2023-03-06T00:58:19.940Z,11.57
2023-03-06T01:00:47.153Z,17.23
2023-03-06T01:03:14.308Z,15.23
2023-03-06T01:05:41.518Z,13.38
2023-03-06T01:08:08.922Z,13.15
2023-03-06T01:10:38.740Z,13.55
2023-03-06T01:13:05.924Z,11.95
2023-03-06T01:15:33.122Z,13.93
2023-03-06T01:18:00.252Z,14.13
2023-03-06T01:20:27.428Z,14.80
2023-03-06T01:22:56.504Z,16.90
2023-03-06T01:25:24.955Z,13.07
2023-03-06T01:27:52.997Z,15.10
2023-03-06T01:30:20.419Z,15.32
2023-03-06T01:32:48.193Z,16.23
2023-03-06T01:35:15.388Z,13.25
2023-03-06T01:37:42.765Z,14.43
2023-03-06T01:40:10.761Z,17.48
2023-03-06T01:42:37.920Z,14.70
2023-03-06T01:45:09.865Z,17.95
2023-03-06T01:47:37.007Z,19.10
2023-03-06T01:50:05.050Z,22.20
2023-03-06T01:52:34.076Z,21.63
2023-03-06T01:55:20.904Z,19.35
2023-03-06T01:57:52.868Z,17.63
2023-03-06T02:00:22.423Z,18.98
2023-03-06T02:02:53.492Z,20.08
2023-03-06T02:05:20.853Z,19.33
2023-03-06T02:07:48.595Z,22.83
2023-03-06T02:10:16.390Z,18.75
2023-03-06T02:12:43.982Z,19.00
2023-03-06T02:15:15.781Z,18.33
2023-03-06T02:17:44.710Z,24.42
2023-03-06T02:20:24.687Z,20.67
2023-03-06T02:22:58.032Z,23.98
2023-03-06T02:25:33.334Z,22.95
2023-03-06T02:28:00.935Z,23.38
2023-03-06T02:30:29.530Z,24.85
2023-03-06T02:32:56.912Z,22.00
2023-03-06T02:35:25.449Z,21.00
2023-03-06T02:37:53.327Z,21.40
2023-03-06T02:40:22.954Z,21.00
2023-03-06T02:42:51.486Z,19.98
2023-03-06T02:45:22.834Z,19.13
2023-03-06T02:47:49.927Z,20.80
2023-03-06T02:50:17.156Z,19.35
2023-03-06T02:52:44.247Z,19.58
2023-03-06T02:55:11.665Z,18.38
2023-03-06T02:57:39.205Z,19.95
2023-03-06T03:00:06.635Z,20.40
2023-03-06T03:02:33.734Z,23.60
2023-03-06T03:05:00.842Z,22.60
2023-03-06T03:07:27.921Z,17.67
2023-03-06T03:09:55.306Z,18.75
2023-03-06T03:12:22.479Z,19.95
2023-03-06T03:14:49.833Z,20.00
2023-03-06T03:17:17.055Z,20.08
2023-03-06T03:19:44.247Z,18.38
2023-03-06T03:22:11.541Z,17.20
2023-03-06T03:24:39.936Z,18.88
2023-03-06T03:27:07.198Z,16.08
2023-03-06T03:29:34.446Z,18.52
2023-03-06T03:32:01.650Z,19.45
2023-03-06T03:34:29.087Z,18.00
2023-03-06T03:36:56.283Z,17.77
2023-03-06T03:39:23.591Z,17.95
2023-03-06T03:41:50.951Z,19.38
2023-03-06T03:44:18.089Z,19.42
2023-03-06T03:46:45.336Z,17.10
2023-03-06T03:49:12.513Z,19.63
2023-03-06T03:51:39.722Z,22.63
2023-03-06T03:54:06.937Z,17.48
2023-03-06T03:56:34.164Z,18.17
2023-03-06T03:59:01.385Z,17.35
2023-03-06T04:01:28.806Z,20.55
2023-03-06T04:03:55.952Z,20.05
2023-03-06T04:06:23.159Z,19.90
2023-03-06T04:08:50.254Z,18.65
2023-03-06T04:11:17.570Z,20.10
2023-03-06T04:13:44.700Z,18.40
2023-03-06T04:16:12.001Z,17.90
2023-03-06T04:18:39.168Z,20.10
2023-03-06T04:21:06.533Z,19.45
2023-03-06T04:23:33.647Z,17.88
2023-03-06T04:26:00.771Z,16.45
2023-03-06T04:28:27.940Z,20.42
2023-03-06T04:30:55.111Z,18.15
2023-03-06T04:33:22.427Z,19.90
2023-03-06T04:35:50.519Z,18.63
2023-03-06T04:38:17.861Z,19.23
2023-03-06T04:40:45.185Z,19.65
2023-03-06T04:43:12.944Z,20.70
2023-03-06T04:45:40.394Z,19.10
2023-03-06T04:48:07.969Z,20.98
2023-03-06T04:50:35.532Z,18.17
2023-03-06T04:53:04.684Z,18.33
2023-03-06T04:55:32.001Z,17.42
2023-03-06T04:57:59.367Z,13.48
2023-03-06T05:00:31.599Z,16.70
2023-03-06T05:03:02.743Z,13.60
2023-03-06T05:05:30.057Z,13.63
2023-03-06T05:07:57.182Z,11.70
2023-03-06T05:10:24.895Z,12.30
2023-03-06T05:12:52.106Z,12.35
2023-03-06T05:15:19.272Z,10.63
2023-03-06T05:17:47.652Z,9.88
2023-03-06T05:20:15.548Z,10.15
2023-03-06T05:22:42.848Z,8.65
2023-03-06T05:25:11.126Z,11.32
2023-03-06T05:27:38.494Z,9.60
2023-03-06T05:30:06.045Z,10.48
2023-03-06T05:32:35.538Z,9.20
2023-03-06T05:35:03.069Z,11.02
2023-03-06T05:37:30.726Z,9.98
2023-03-06T05:39:59.346Z,9.18
2023-03-06T05:42:28.635Z,10.13
2023-03-06T05:44:55.919Z,11.18
2023-03-06T05:47:23.086Z,11.85
2023-03-06T05:49:50.367Z,10.38
2023-03-06T05:52:17.578Z,14.05
2023-03-06T05:54:44.773Z,14.93
2023-03-06T05:57:12.024Z,13.02
2023-03-06T05:59:39.146Z,12.77
2023-03-06T06:02:06.501Z,13.13
2023-03-06T06:04:33.685Z,11.85
2023-03-06T06:07:01.336Z,11.35
2023-03-06T06:09:29.257Z,16.05
2023-03-06T06:11:58.415Z,13.93
2023-03-06T06:14:25.807Z,11.55
2023-03-06T06:16:53.228Z,13.25
2023-03-06T06:19:20.820Z,13.82
2023-03-06T06:21:48.897Z,12.18
2023-03-06T06:24:16.934Z,13.65
2023-03-06T06:26:44.260Z,11.20
2023-03-06T06:29:11.704Z,13.32
2023-03-06T06:31:38.884Z,13.68
2023-03-06T06:34:06.566Z,13.77
2023-03-06T06:36:33.838Z,12.43
2023-03-06T06:39:00.952Z,12.55
2023-03-06T06:41:50.711Z,12.13
2023-03-06T06:49:32.721Z,15.55
2023-03-06T06:52:02.763Z,14.95
2023-03-06T06:54:29.918Z,12.80
2023-03-06T06:56:57.036Z,11.32
2023-03-06T06:59:24.217Z,8.75
2023-03-06T07:01:52.117Z,6.35
2023-03-06T07:04:19.806Z,1.80
2023-03-06T07:06:47.190Z,7.40
2023-03-06T07:09:14.849Z,7.80
2023-03-06T07:11:42.233Z,7.70
2023-03-06T07:14:09.497Z,7.47
2023-03-06T07:16:36.781Z,6.07
2023-03-06T07:19:04.286Z,6.20
2023-03-06T07:21:31.690Z,7.57
2023-03-06T07:23:58.931Z,8.48
2023-03-06T07:26:26.230Z,5.97
2023-03-06T07:28:54.034Z,6.45
2023-03-06T07:31:22.413Z,5.63
2023-03-06T07:33:50.045Z,5.68
2023-03-06T07:36:17.582Z,7.15
2023-03-06T07:38:44.740Z,9.25
2023-03-06T07:41:13.860Z,6.60
2023-03-06T07:46:12.808Z,1.88
2023-03-06T07:48:40.353Z,3.97
2023-03-06T07:51:09.607Z,2.92
2023-03-06T07:53:36.962Z,3.25
2023-03-06T07:56:08.786Z,2.40
2023-03-06T07:58:36.539Z,1.80
2023-03-06T08:01:04.867Z,5.03
2023-03-06T08:03:32.466Z,2.70
2023-03-06T08:06:06.627Z,1.88
2023-03-06T08:08:35.058Z,2.70
2023-03-06T08:11:02.338Z,2.45
2023-03-06T08:13:29.464Z,3.83
2023-03-06T08:15:56.859Z,3.13
2023-03-06T08:18:24.104Z,4.22
2023-03-06T08:20:51.211Z,1.85
2023-03-06T08:23:18.334Z,3.35
2023-03-06T08:25:45.433Z,14.32
2023-03-06T08:28:12.685Z,2.70
2023-03-06T08:30:39.913Z,3.53
2023-03-06T08:33:07.109Z,3.03
2023-03-06T08:35:34.281Z,4.10
2023-03-06T08:38:01.397Z,3.22
2023-03-06T08:40:30.532Z,2.30
2023-03-06T08:42:57.636Z,4.75
2023-03-06T08:45:24.775Z,2.42
2023-03-06T08:47:51.937Z,2.00
2023-03-06T08:50:21.515Z,2.72
2023-03-06T08:52:48.897Z,2.17
2023-03-06T08:55:16.093Z,4.20
2023-03-06T08:57:43.230Z,1.65
2023-03-06T09:00:14.025Z,2.83
2023-03-06T09:02:41.424Z,1.45
2023-03-06T09:05:09.766Z,3.13
2023-03-06T09:07:36.947Z,1.98
2023-03-06T09:10:04.497Z,1.65
2023-03-06T09:12:40.341Z,1.10
2023-03-06T09:15:15.181Z,3.83
2023-03-06T09:17:42.400Z,3.38
2023-03-06T09:20:10.639Z,1.45
2023-03-06T09:22:37.911Z,3.60
2023-03-06T09:25:06.110Z,3.25
2023-03-06T09:27:35.249Z,3.05
2023-03-06T09:30:04.106Z,1.27
2023-03-06T09:32:31.242Z,1.27
2023-03-06T09:34:58.403Z,3.65
2023-03-06T09:37:25.570Z,1.60
2023-03-06T09:39:53.181Z,1.20
2023-03-06T09:42:23.660Z,1.65
2023-03-06T09:44:58.362Z,4.30
2023-03-06T09:47:44.544Z,0.90
2023-03-06T09:50:38.608Z,0.40
2023-03-06T09:53:12.250Z,0.80
2023-03-06T09:55:40.973Z,1.02
2023-03-06T09:58:17.137Z,0.77
2023-03-06T10:00:51.974Z,1.10
2023-03-06T10:03:24.324Z,1.15
2023-03-06T10:05:55.288Z,2.10
2023-03-06T10:08:31.145Z,1.92
2023-03-06T10:11:03.970Z,1.13
2023-03-06T10:13:37.093Z,2.40
2023-03-06T10:16:08.061Z,2.67
2023-03-06T10:18:38.407Z,4.97
2023-03-06T10:21:19.288Z,1.00
2023-03-06T10:26:20.398Z,1.10
2023-03-06T10:29:15.624Z,1.55
2023-03-06T10:31:49.572Z,1.83
2023-03-06T10:34:24.589Z,1.42
2023-03-06T10:36:52.046Z,0.95
2023-03-06T10:39:23.020Z,5.45
2023-03-06T10:41:50.648Z,0.80
2023-03-06T10:44:19.583Z,1.70
2023-03-06T10:54:14.113Z,1.63
2023-03-06T10:56:42.452Z,6.50
2023-03-06T10:59:13.193Z,1.52
2023-03-06T11:01:42.075Z,1.95
2023-03-06T11:06:36.528Z,3.05
2023-03-06T11:09:23.632Z,1.55
2023-03-06T11:11:51.307Z,8.57
2023-03-06T11:14:20.819Z,1.40
2023-03-06T11:16:53.328Z,4.50
2023-03-06T11:19:20.529Z,3.22
2023-03-06T11:22:00.340Z,1.02
2023-03-06T11:24:28.238Z,2.80
2023-03-06T11:26:58.696Z,2.55
2023-03-06T11:29:29.622Z,2.15
2023-03-06T11:32:09.059Z,5.43
2023-03-06T11:34:54.020Z,1.98
2023-03-06T11:37:24.008Z,3.85
2023-03-06T11:40:09.801Z,5.03
2023-03-06T11:42:41.556Z,2.03
2023-03-06T11:45:27.632Z,2.50
2023-03-06T11:47:57.686Z,6.68
2023-03-06T11:50:56.991Z,4.38
2023-03-06T11:53:28.848Z,3.75
2023-03-06T11:56:04.036Z,3.55
2023-03-06T11:58:40.397Z,3.25
2023-03-06T12:01:10.632Z,3.70
2023-03-06T12:03:50.261Z,2.67
2023-03-06T12:06:35.673Z,4.07
2023-03-06T12:09:04.852Z,2.92
2023-03-06T12:11:52.100Z,3.97
2023-03-06T12:14:31.153Z,16.85
2023-03-06T12:17:10.509Z,7.45
2023-03-06T12:19:50.272Z,4.65
2023-03-06T12:22:36.311Z,3.15
2023-03-06T12:25:06.564Z,3.65
2023-03-06T12:27:36.560Z,4.35
2023-03-06T12:30:44.036Z,5.20
2023-03-06T12:33:29.352Z,5.38
2023-03-06T12:36:02.912Z,5.35
2023-03-06T12:38:30.001Z,5.10
2023-03-06T12:41:15.728Z,5.55
2023-03-06T12:43:55.471Z,6.90
2023-03-06T12:46:23.718Z,4.55
2023-03-06T12:48:56.656Z,5.95
2023-03-06T12:51:23.903Z,8.30
2023-03-06T12:53:51.970Z,7.85
2023-03-06T12:56:19.475Z,9.05
2023-03-06T12:58:52.704Z,7.10
2023-03-06T13:01:20.061Z,10.35
2023-03-06T13:03:59.639Z,9.77
2023-03-06T13:06:49.761Z,12.50
2023-03-06T13:09:24.088Z,7.22
2023-03-06T13:12:03.351Z,7.20
2023-03-06T13:14:30.492Z,10.70
2023-03-06T13:17:17.624Z,12.80
2023-03-06T13:19:44.932Z,9.93
2023-03-06T13:22:16.498Z,9.27
2023-03-06T13:24:45.613Z,10.88
2023-03-06T13:27:13.345Z,9.60
2023-03-06T13:29:40.603Z,11.73
2023-03-06T13:32:16.926Z,10.85
2023-03-06T13:34:51.760Z,14.70
2023-03-06T13:37:23.489Z,10.80
2023-03-06T13:40:00.774Z,11.13
2023-03-06T13:45:17.248Z,14.68
2023-03-06T13:48:25.072Z,11.77
2023-03-06T13:50:46.465Z,10.15
2023-03-06T13:53:13.930Z,11.27
2023-03-06T13:55:59.937Z,9.65
2023-03-06T13:58:47.392Z,10.68
2023-03-06T14:01:20.925Z,9.40
2023-03-06T14:03:57.306Z,10.55
2023-03-06T14:06:54.694Z,10.68
2023-03-06T14:09:35.107Z,10.18
2023-03-06T14:12:15.590Z,12.40
2023-03-06T14:17:44.569Z,11.25
2023-03-06T14:20:16.051Z,8.23
2023-03-06T14:22:43.256Z,8.23
2023-03-06T14:25:25.795Z,10.80
2023-03-06T14:27:54.950Z,9.40
2023-03-06T14:30:26.327Z,8.48
2023-03-06T14:32:55.305Z,9.98
2023-03-06T14:37:53.432Z,11.02
2023-03-06T14:40:30.494Z,10.50
2023-03-06T14:43:10.666Z,13.10
2023-03-06T14:45:39.610Z,10.57
2023-03-06T14:50:35.320Z,12.50
2023-03-06T14:53:23.132Z,8.90
2023-03-06T14:55:53.358Z,10.88
2023-03-06T14:58:32.209Z,9.50
2023-03-06T15:01:01.946Z,9.48
2023-03-06T15:03:34.911Z,6.57
2023-03-06T15:06:02.536Z,5.93
2023-03-06T15:08:32.853Z,7.07
2023-03-06T15:11:01.407Z,5.85
2023-03-06T15:16:20.513Z,6.57
2023-03-06T15:19:01.296Z,11.32
2023-03-06T15:21:30.177Z,6.93
2023-03-06T15:26:29.649Z,7.80
2023-03-06T15:29:10.198Z,7.95
2023-03-06T15:31:42.130Z,7.95
2023-03-06T15:34:09.285Z,7.30
2023-03-06T15:36:47.390Z,9.75
2023-03-06T15:39:26.574Z,7.78
2023-03-06T15:42:00.906Z,9.10
2023-03-06T15:44:29.750Z,9.52
2023-03-06T15:47:07.778Z,12.40
2023-03-06T15:49:37.105Z,12.82
2023-03-06T15:52:04.555Z,12.75
2023-03-06T15:54:33.009Z,13.10
2023-03-06T15:57:00.549Z,15.68
2023-03-06T15:59:33.246Z,14.85
2023-03-06T16:02:10.624Z,17.40
2023-03-06T16:04:37.840Z,14.40
2023-03-06T16:07:04.944Z,17.52
2023-03-06T16:09:32.919Z,18.38
2023-03-06T16:12:00.152Z,19.90
2023-03-06T16:14:27.366Z,18.10
2023-03-06T16:16:54.842Z,19.10
2023-03-06T16:19:26.459Z,19.23
2023-03-06T16:21:55.001Z,20.48
2023-03-06T16:24:22.158Z,19.90
2023-03-06T16:26:50.870Z,29.48
2023-03-06T16:29:19.087Z,20.33
2023-03-06T16:31:46.398Z,18.55
2023-03-06T16:34:14.212Z,18.58
2023-03-06T16:36:41.582Z,22.20
2023-03-06T16:39:13.726Z,22.05
2023-03-06T16:41:40.843Z,21.45
2023-03-06T16:44:10.044Z,19.45
2023-03-06T16:46:40.190Z,21.88
2023-03-06T16:49:07.701Z,25.23
2023-03-06T16:51:37.195Z,21.25
2023-03-06T16:54:04.602Z,24.27
2023-03-06T16:56:31.737Z,20.95
2023-03-06T16:58:59.025Z,20.52
2023-03-06T17:01:26.249Z,19.95
2023-03-06T17:03:55.581Z,22.75
2023-03-06T17:06:23.431Z,18.05
2023-03-06T17:08:51.569Z,21.65
2023-03-06T17:11:20.437Z,21.77
2023-03-06T17:13:48.330Z,23.60
2023-03-06T17:16:16.501Z,23.20
2023-03-06T17:18:44.477Z,23.00
2023-03-06T17:21:11.713Z,21.15
2023-03-06T17:23:39.011Z,22.30
2023-03-06T17:26:10.741Z,20.20
2023-03-06T17:28:38.568Z,22.25
2023-03-06T17:31:16.183Z,17.63
2023-03-06T17:33:43.811Z,21.27
2023-03-06T17:36:11.383Z,20.20
2023-03-06T17:38:38.531Z,20.02
2023-03-06T17:41:06.389Z,17.80
2023-03-06T17:43:34.295Z,22.42
2023-03-06T17:46:09.926Z,21.88
2023-03-06T17:48:37.717Z,24.45
2023-03-06T17:51:05.451Z,23.15
2023-03-06T17:53:32.924Z,21.20
2023-03-06T17:56:00.357Z,22.05
2023-03-06T17:58:27.950Z,22.55
2023-03-06T18:00:55.152Z,24.05
2023-03-06T18:03:22.491Z,22.35
2023-03-06T18:05:58.791Z,20.77
2023-03-06T18:08:26.113Z,23.75
2023-03-06T18:10:53.372Z,23.70
2023-03-06T18:13:20.467Z,25.60
2023-03-06T18:15:47.676Z,26.15
2023-03-06T18:18:14.779Z,28.10
2023-03-06T18:20:42.050Z,24.38
2023-03-06T18:23:09.390Z,23.60
2023-03-06T18:25:36.695Z,25.38
2023-03-06T18:28:03.968Z,25.63
2023-03-06T18:30:31.223Z,24.13
2023-03-06T18:32:59.334Z,24.13
2023-03-06T18:35:26.595Z,24.13
2023-03-06T18:37:53.813Z,20.67
2023-03-06T18:40:21.290Z,23.85
2023-03-06T18:42:49.761Z,24.10
2023-03-06T18:45:16.986Z,26.58
2023-03-06T18:47:44.102Z,25.38
2023-03-06T18:50:16.569Z,22.63
2023-03-06T18:52:44.579Z,27.70
2023-03-06T18:55:12.227Z,26.60
2023-03-06T18:57:40.098Z,29.90
2023-03-06T19:00:07.612Z,25.42
2023-03-06T19:02:35.108Z,24.13
2023-03-06T19:05:02.497Z,24.20
2023-03-06T19:07:29.731Z,24.77
2023-03-06T19:09:57.070Z,26.40
2023-03-06T19:12:24.304Z,27.48
2023-03-06T19:14:51.806Z,24.30
2023-03-06T19:17:19.011Z,30.50
2023-03-06T19:19:46.601Z,29.73
2023-03-06T19:22:13.808Z,29.05
2023-03-06T19:24:41.741Z,27.65
2023-03-06T19:27:09.143Z,29.67
2023-03-06T19:29:37.503Z,29.52
2023-03-06T19:32:04.827Z,29.25
2023-03-06T19:34:32.288Z,28.05
2023-03-06T19:36:59.487Z,32.90
2023-03-06T19:39:26.845Z,28.45
2023-03-06T19:41:54.160Z,28.75
2023-03-06T19:44:23.116Z,28.45
2023-03-06T19:46:50.621Z,30.35
2023-03-06T19:49:21.679Z,29.05
2023-03-06T19:51:49.199Z,29.98
2023-03-06T19:54:16.620Z,28.80
2023-03-06T19:56:44.103Z,32.08
2023-03-06T19:59:11.480Z,31.48
2023-03-06T20:01:38.733Z,26.55
2023-03-06T20:04:06.128Z,32.13
2023-03-06T20:06:34.293Z,31.13
2023-03-06T20:09:02.735Z,31.77
2023-03-06T20:11:30.536Z,26.90
2023-03-06T20:13:58.907Z,33.85
2023-03-06T20:16:28.140Z,27.27
2023-03-06T20:18:58.193Z,25.05
2023-03-06T20:21:26.183Z,31.30
2023-03-06T20:23:54.456Z,26.90
2023-03-06T20:26:21.813Z,32.13
2023-03-06T20:28:49.259Z,30.40
2023-03-06T20:31:18.398Z,29.17
2023-03-06T20:36:20.688Z,24.02
2023-03-06T20:38:48.407Z,27.05
2023-03-06T20:41:17.348Z,27.98
2023-03-06T20:43:44.595Z,31.02
2023-03-06T20:46:12.846Z,29.88
2023-03-06T20:48:40.387Z,33.45
2023-03-06T20:51:11.045Z,30.02
2023-03-06T20:53:38.225Z,28.00
2023-03-06T20:56:05.620Z,26.50
2023-03-06T20:58:33.094Z,28.80
2023-03-06T21:01:02.292Z,28.02
2023-03-06T21:03:29.868Z,32.15
2023-03-06T21:05:57.249Z,27.40
2023-03-06T21:11:47.411Z,28.40
2023-03-06T21:14:14.847Z,27.10
2023-03-06T21:16:42.293Z,28.65
2023-03-06T21:19:39.077Z,27.83
2023-03-06T21:22:58.769Z,25.52
2023-03-06T21:25:26.096Z,25.83
2023-03-06T21:27:53.220Z,22.73
2023-03-06T21:30:20.539Z,28.63
2023-03-06T21:32:47.988Z,29.48
2023-03-06T21:35:15.214Z,28.23
2023-03-06T21:37:42.530Z,25.05
2023-03-06T21:40:10.432Z,24.92
2023-03-06T21:42:38.080Z,25.73
2023-03-06T21:45:07.701Z,20.92
2023-03-06T21:47:38.827Z,21.70
2023-03-06T21:50:07.033Z,24.65
2023-03-06T21:52:34.266Z,22.85
2023-03-06T21:55:01.446Z,20.38
2023-03-06T21:57:28.591Z,19.70
2023-03-06T21:59:55.705Z,15.73
2023-03-06T22:02:22.974Z,15.52
2023-03-06T22:04:53.413Z,15.35
2023-03-06T22:07:20.937Z,11.52
2023-03-06T22:09:48.277Z,13.32
2023-03-06T22:12:15.424Z,12.95
2023-03-06T22:14:44.029Z,9.63
2023-03-06T22:17:11.202Z,8.27
2023-03-06T22:19:38.401Z,11.73
2023-03-06T22:22:06.010Z,7.45
2023-03-06T22:24:33.203Z,10.98
2023-03-06T22:27:00.417Z,9.50
2023-03-06T22:29:27.701Z,10.32
2023-03-06T22:31:54.842Z,10.68
2023-03-06T22:34:21.975Z,9.23
2023-03-06T22:36:49.261Z,8.98
2023-03-06T22:39:16.744Z,7.63
2023-03-06T22:41:43.946Z,7.05
2023-03-06T22:44:15.842Z,7.70
2023-03-06T22:46:43.069Z,6.80
2023-03-06T22:49:11.631Z,7.72
2023-03-06T22:51:39.032Z,7.63
2023-03-06T22:54:06.706Z,8.18
2023-03-06T22:56:34.238Z,9.95
2023-03-06T22:59:01.546Z,8.18
2023-03-06T23:01:29.906Z,10.48
2023-03-06T23:03:58.583Z,8.05
2023-03-06T23:06:27.169Z,8.55
2023-03-06T23:08:56.215Z,10.75
2023-03-06T23:11:23.744Z,9.60
2023-03-06T23:13:50.925Z,9.32
2023-03-06T23:16:18.054Z,10.75
2023-03-06T23:18:45.226Z,10.43
2023-03-06T23:21:14.025Z,11.77
2023-03-06T23:23:41.723Z,10.43
2023-03-06T23:26:09.483Z,9.43
2023-03-06T23:28:36.701Z,9.88
2023-03-06T23:31:08.087Z,10.15
2023-03-06T23:33:35.337Z,11.52
2023-03-06T23:36:03.258Z,11.68
2023-03-06T23:38:30.941Z,9.90
2023-03-06T23:41:02.179Z,11.13
2023-03-06T23:43:29.479Z,9.55
2023-03-06T23:45:57.102Z,9.68
2023-03-06T23:48:24.891Z,13.15
2023-03-06T23:50:52.042Z,10.15
2023-03-06T23:53:19.210Z,8.40
2023-03-06T23:55:47.325Z,11.05
2023-03-06T23:58:15.711Z,8.32
